Time;durP1;ratioP1;P1;durP2;ratioP2;P2;SDS_P1;SDS_P2;PMS_P1;PMS_P2;Temp;Humidity;BMP_temperature;BMP_pressure;BME280_temperature;BME280_humidity;BME280_pressure;Samples;Min_cycle;Max_cycle;Signal;HPM_P1;HPM_P2
2022/06/02 00:00:37;;;;;;;;;;;;;;;23.10;62.18;99693.38;5052335;28;20014;-49
2022/06/02 00:03:13;;;;;;;;;;;;;;;23.08;62.60;99692.84;5052324;28;19908;-49
2022/06/02 00:05:57;;;;;;;;;;;;;;;23.08;62.20;99696.38;5052395;28;19916;-47
2022/06/02 00:08:36;;;;;;;;;;;;;;;23.16;61.40;99692.22;5051841;28;19909;-48
2022/06/02 00:11:19;;;;;;;;;;;;;;;23.11;61.82;99694.97;5051962;28;19913;-49
2022/06/02 00:13:58;;;;;;;;;;;;;;;23.01;62.09;99696.66;5031782;28;19919;-48
2022/06/02 00:16:46;;;;;;;;;;;;;;;22.92;62.28;99690.25;5030651;28;20023;-48
2022/06/02 00:19:21;;;;;;;;;;;;;;;22.95;62.06;99686.97;5012133;28;20010;-49
2022/06/02 00:21:52;;;;;;;;;;;;;;;22.97;61.64;99687.47;5031913;28;19913;-48
2022/06/02 00:24:27;;;;;;;;;;;;;;;23.10;61.36;99694.19;5031895;28;19912;-47
2022/06/02 00:27:01;;;;;;;;;;;;;;;22.85;61.92;99684.38;5031855;28;20282;-52
2022/06/02 00:29:35;;;;;;;;;;;;;;;22.87;61.70;99684.88;5031441;28;19952;-48
2022/06/02 00:32:12;;;;;;;;;;;;;;;22.72;62.16;99693.16;5030504;28;19944;-51
2022/06/02 00:34:54;;;;;;;;;;;;;;;22.82;61.77;99696.59;5031739;28;20099;-48
2022/06/02 00:37:30;;;;;;;;;;;;;;;22.86;61.68;99701.44;5031581;28;19909;-51
2022/06/02 00:39:56;;;;;;;;;;;;;;;22.84;61.57;99702.53;5031325;28;20364;-49
2022/06/02 00:42:24;;;;;;;;;;;;;;;22.78;61.86;99700.97;5031400;28;19915;-48
2022/06/02 00:45:10;;;;;;;;;;;;;;;22.92;61.01;99690.25;5031427;28;20004;-48
2022/06/02 00:47:41;;;;;;;;;;;;;;;22.83;60.99;99691.97;5030734;28;19909;-47
2022/06/02 00:50:07;;;;;;;;;;;;;;;22.58;62.13;99693.84;5031074;28;19913;-49
2022/06/02 00:52:44;;;;;;;;;;;;;;;22.55;62.35;99699.00;5030795;28;19920;-47
2022/06/02 00:58:05;;;;;;;;;;;;;;;22.53;62.34;99691.16;5030952;28;20331;-49
2022/06/02 01:00:31;;;;;;;;;;;;;;;22.44;62.71;99693.66;5030417;28;20294;-48
2022/06/02 01:03:05;;;;;;;;;;;;;;;22.40;62.82;99692.59;5030633;28;19967;-48
2022/06/02 01:05:49;;;;;;;;;;;;;;;22.51;62.11;99690.63;5031070;28;19983;-47
2022/06/02 01:08:14;;;;;;;;;;;;;;;22.49;62.51;99690.09;5030991;28;19909;-48
2022/06/02 01:10:58;;;;;;;;;;;;;;;22.43;62.31;99689.34;5031095;28;20280;-48
2022/06/02 01:13:26;;;;;;;;;;;;;;;22.30;62.78;99686.47;5047782;28;20289;-47
2022/06/02 01:15:57;;;;;;;;;;;;;;;22.43;62.12;99683.13;5050568;28;19909;-47
2022/06/02 01:18:22;;;;;;;;;;;;;;;22.37;62.25;99676.94;5050872;28;19909;-47
2022/06/02 01:21:06;;;;;;;;;;;;;;;22.56;61.43;99671.63;5050697;28;19913;-49
2022/06/02 01:23:37;;;;;;;;;;;;;;;22.35;61.89;99670.97;5050428;28;19916;-47
2022/06/02 01:26:18;;;;;;;;;;;;;;;22.34;61.93;99669.34;5051139;28;20443;-48
2022/06/02 01:28:46;;;;;;;;;;;;;;;22.50;61.18;99666.50;5050813;28;19909;-50
2022/06/02 01:31:18;;;;;;;;;;;;;;;22.44;61.28;99663.03;5050843;28;19960;-50
2022/06/02 01:33:55;;;;;;;;;;;;;;;22.38;61.18;99666.88;5050650;28;19948;-47
2022/06/02 01:36:36;;;;;;;;;;;;;;;22.44;60.95;99665.75;5051096;28;20074;-47
2022/06/02 01:39:06;;;;;;;;;;;;;;;22.44;60.52;99658.41;5051084;28;19920;-48
2022/06/02 01:41:43;;;;;;;;;;;;;;;22.24;60.77;99662.06;5051055;28;19939;-47
2022/06/02 01:44:11;;;;;;;;;;;;;;;22.29;60.22;99663.97;5050123;28;19913;-47
2022/06/02 01:46:39;;;;;;;;;;;;;;;22.31;59.06;99660.97;5050875;28;19963;-47
2022/06/02 01:49:10;;;;;;;;;;;;;;;22.11;59.40;99667.34;5050773;28;20003;-49
2022/06/02 01:51:39;;;;;;;;;;;;;;;22.16;58.91;99665.41;5050816;28;19920;-48
2022/06/02 01:54:27;;;;;;;;;;;;;;;22.29;58.56;99663.97;5050685;28;20528;-49
2022/06/02 01:56:58;;;;;;;;;;;;;;;22.29;58.46;99663.16;5050657;28;20031;-49
2022/06/02 01:59:29;;;;;;;;;;;;;;;22.12;58.51;99661.59;5050715;28;19999;-47
2022/06/02 02:01:54;;;;;;;;;;;;;;;21.89;59.79;99665.03;5050911;28;19999;-48
2022/06/02 02:04:35;;;;;;;;;;;;;;;22.03;59.53;99660.63;5050363;28;20367;-48
2022/06/02 02:07:05;;;;;;;;;;;;;;;22.10;59.67;99671.91;5050272;28;19947;-48
2022/06/02 02:09:36;;;;;;;;;;;;;;;22.10;59.55;99676.53;5050896;28;19912;-49
2022/06/02 02:12:02;;;;;;;;;;;;;;;22.05;60.13;99672.78;5044200;28;20369;-47
2022/06/02 02:14:45;;;;;;;;;;;;;;;22.03;59.75;99676.88;5030290;28;20386;-47
2022/06/02 02:17:14;;;;;;;;;;;;;;;22.02;59.71;99670.63;5030390;28;19924;-45
2022/06/02 02:19:52;;;;;;;;;;;;;;;21.99;60.16;99673.91;5030414;28;19909;-47
2022/06/02 02:22:37;;;;;;;;;;;;;;;22.00;59.88;99678.22;5030616;28;19909;-47
2022/06/02 02:25:29;;;;;;;;;;;;;;;21.90;59.72;99678.31;5019531;28;19909;-47
2022/06/02 02:28:03;;;;;;;;;;;;;;;21.90;59.98;99680.22;5029053;28;19909;-47
2022/06/02 02:30:38;;;;;;;;;;;;;;;21.91;60.14;99679.09;5030372;28;19917;-46
2022/06/02 02:33:22;;;;;;;;;;;;;;;21.89;60.08;99675.88;5030281;28;19913;-47
2022/06/02 02:36:06;;;;;;;;;;;;;;;22.03;59.93;99674.97;5030357;28;20445;-47
2022/06/02 02:38:40;;;;;;;;;;;;;;;21.91;60.09;99679.91;5030158;28;19963;-48
2022/06/02 02:41:10;;;;;;;;;;;;;;;21.95;60.21;99675.56;5030526;28;19938;-47
2022/06/02 02:43:39;;;;;;;;;;;;;;;21.95;59.99;99681.00;5029798;28;20608;-49
2022/06/02 02:46:06;;;;;;;;;;;;;;;22.01;59.67;99673.63;5030002;28;19917;-47
2022/06/02 02:48:37;;;;;;;;;;;;;;;22.00;60.10;99677.41;5031038;28;19912;-48
2022/06/02 02:51:30;;;;;;;;;;;;;;;21.97;59.76;99680.69;5044559;28;20237;-46
2022/06/02 02:54:01;;;;;;;;;;;;;;;21.67;60.16;99675.16;5047692;28;19924;-46
2022/06/02 02:56:58;;;;;;;;;;;;;;;21.79;60.70;99679.44;5042934;28;19913;-47
2022/06/02 02:59:32;;;;;;;;;;;;;;;21.92;59.78;99683.44;5021159;28;19931;-47
2022/06/02 03:01:58;;;;;;;;;;;;;;;21.85;59.03;99676.41;5052853;28;20345;-46
2022/06/02 03:04:29;;;;;;;;;;;;;;;21.83;59.22;99675.88;5053924;28;19922;-47
2022/06/02 03:06:55;;;;;;;;;;;;;;;21.93;58.75;99679.63;5053966;28;19919;-48
2022/06/02 03:09:41;;;;;;;;;;;;;;;22.08;57.78;99676.81;5053330;28;19908;-47
2022/06/02 03:12:08;;;;;;;;;;;;;;;21.73;58.75;99670.53;5047082;28;19962;-48
2022/06/02 03:14:46;;;;;;;;;;;;;;;21.93;58.50;99679.63;5033744;28;19917;-47
2022/06/02 03:17:23;;;;;;;;;;;;;;;22.02;58.24;99684.16;5032082;28;19921;-47
2022/06/02 03:19:55;;;;;;;;;;;;;;;21.93;58.51;99680.44;5033386;28;19913;-47
2022/06/02 03:22:40;;;;;;;;;;;;;;;22.04;58.37;99678.47;5033271;28;19931;-47
2022/06/02 03:25:13;;;;;;;;;;;;;;;21.86;58.75;99682.66;5033450;28;20003;-47
2022/06/02 03:27:53;;;;;;;;;;;;;;;22.09;58.32;99693.91;5033627;28;20303;-46
2022/06/02 03:30:29;;;;;;;;;;;;;;;21.94;59.02;99690.19;5033095;28;19920;-46
2022/06/02 03:33:08;;;;;;;;;;;;;;;21.97;59.02;99692.34;5033254;28;19909;-49
2022/06/02 03:35:52;;;;;;;;;;;;;;;22.00;58.90;99699.91;5033521;28;19908;-49
2022/06/02 03:38:23;;;;;;;;;;;;;;;22.16;58.53;99700.63;5033461;28;20011;-48
2022/06/02 03:40:51;;;;;;;;;;;;;;;22.64;56.95;99708.16;5033339;28;19948;-50
2022/06/02 03:43:26;;;;;;;;;;;;;;;22.74;56.58;99696.41;5033039;28;19909;-48
2022/06/02 03:46:11;;;;;;;;;;;;;;;23.02;55.81;99703.72;5033118;28;19931;-48
2022/06/02 03:48:45;;;;;;;;;;;;;;;23.00;55.94;99703.19;5032764;28;19995;-49
2022/06/02 03:51:11;;;;;;;;;;;;;;;23.08;56.23;99701.78;5033367;28;19917;-50
2022/06/02 03:54:02;;;;;;;;;;;;;;;23.23;55.69;99704.34;5032651;28;19912;-50
2022/06/02 03:56:46;;;;;;;;;;;;;;;23.62;54.35;99705.25;5024399;28;19990;-47
2022/06/02 03:59:29;;;;;;;;;;;;;;;23.87;53.83;99700.59;5032773;28;19915;-47
2022/06/02 04:02:02;;;;;;;;;;;;;;;24.27;53.09;99703.81;5032604;28;19932;-46
2022/06/02 04:04:46;;;;;;;;;;;;;;;24.49;52.10;99706.75;5032417;28;20336;-49
2022/06/02 04:07:14;;;;;;;;;;;;;;;24.54;52.12;99703.16;5032701;28;20266;-48
2022/06/02 04:09:42;;;;;;;;;;;;;;;24.91;51.16;99709.59;5032400;28;19913;-51
2022/06/02 04:15:09;;;;;;;;;;;;;;;25.22;50.59;99707.09;5052157;28;19916;-48
2022/06/02 04:17:47;;;;;;;;;;;;;;;25.52;49.61;99702.19;5052187;28;19928;-49
2022/06/02 04:20:36;;;;;;;;;;;;;;;25.80;49.15;99704.88;5051953;28;19909;-50
2022/06/02 04:23:04;;;;;;;;;;;;;;;26.10;47.72;99701.50;5051749;28;19944;-51
2022/06/02 04:25:52;;;;;;;;;;;;;;;26.20;47.31;99696.91;5051811;28;19913;-49
2022/06/02 04:28:23;;;;;;;;;;;;;;;26.19;46.81;99703.50;5051872;28;19924;-50
2022/06/02 04:31:07;;;;;;;;;;;;;;;26.28;46.90;99707.09;5051678;28;19960;-50
2022/06/02 04:33:34;;;;;;;;;;;;;;;26.44;46.24;99702.88;5051439;28;20348;-48
2022/06/02 04:36:02;;;;;;;;;;;;;;;26.81;45.51;99713.75;5051397;28;20038;-49
2022/06/02 04:38:30;;;;;;;;;;;;;;;26.82;44.90;99715.34;5046525;28;19927;-49
2022/06/02 04:41:13;;;;;;;;;;;;;;;27.55;43.61;99709.56;5050769;28;19955;-47
2022/06/02 04:43:57;;;;;;;;;;;;;;;27.76;42.84;99716.03;5039054;28;19974;-47
2022/06/02 04:46:34;;;;;;;;;;;;;;;27.61;43.48;99717.28;5038002;28;19943;-50
2022/06/02 04:49:12;;;;;;;;;;;;;;;27.66;43.13;99713.59;5041296;28;19921;-50
2022/06/02 04:51:46;;;;;;;;;;;;;;;28.47;41.66;99709.50;5034135;28;19935;-48
2022/06/02 04:54:12;;;;;;;;;;;;;;;28.82;40.35;99718.44;5031475;28;19913;-50
2022/06/02 04:56:51;;;;;;;;;;;;;;;28.53;40.67;99719.16;5036677;28;19920;-50
2022/06/02 04:59:29;;;;;;;;;;;;;;;28.30;41.51;99718.50;5041351;28;20416;-52
2022/06/02 05:02:14;;;;;;;;;;;;;;;28.77;40.14;99720.56;5041986;28;19919;-47
2022/06/02 05:04:58;;;;;;;;;;;;;;;28.85;40.59;99725.22;5043207;28;19970;-51
2022/06/02 05:07:32;;;;;;;;;;;;;;;29.63;39.21;99719.41;5039363;28;20403;-47
2022/06/02 05:10:16;;;;;;;;;;;;;;;29.85;38.30;99723.00;5039327;28;20327;-47
2022/06/02 05:12:56;;;;;;;;;;;;;;;29.38;38.71;99726.66;5039351;28;19916;-49
2022/06/02 05:15:33;;;;;;;;;;;;;;;29.47;38.69;99725.81;5039800;28;19909;-49
2022/06/02 05:17:59;;;;;;;;;;;;;;;29.47;38.88;99728.53;5047579;28;20072;-50
2022/06/02 05:20:45;;;;;;;;;;;;;;;29.84;37.89;99724.16;5050124;28;19913;-49
2022/06/02 05:23:19;;;;;;;;;;;;;;;30.84;36.17;99716.00;5048883;28;19920;-51
2022/06/02 05:26:04;;;;;;;;;;;;;;;30.68;36.51;99720.56;5050605;28;19987;-46
2022/06/02 05:28:48;;;;;;;;;;;;;;;30.17;37.45;99704.22;5049355;28;19915;-48
2022/06/02 05:31:19;;;;;;;;;;;;;;;30.26;37.53;99713.19;5048557;28;19924;-47
2022/06/02 05:33:58;;;;;;;;;;;;;;;30.43;36.49;99711.47;5048662;28;20128;-49
2022/06/02 05:36:27;;;;;;;;;;;;;;;31.21;36.03;99723.56;5049585;28;19950;-47
2022/06/02 05:38:58;;;;;;;;;;;;;;;31.36;35.54;99723.66;5049454;28;19909;-48
2022/06/02 05:41:23;;;;;;;;;;;;;;;31.22;35.80;99714.16;5041234;28;19913;-47
2022/06/02 05:43:56;;;;;;;;;;;;;;;31.11;35.63;99720.13;5039299;28;19966;-50
2022/06/02 05:46:41;;;;;;;;;;;;;;;31.28;35.68;99723.78;5039053;28;20055;-50
2022/06/02 05:49:32;;;;;;;;;;;;;;;31.91;33.88;99723.38;5043964;28;20056;-49
2022/06/02 05:51:57;;;;;;;;;;;;;;;32.40;33.08;99728.75;5020245;28;20396;-49
2022/06/02 05:54:23;;;;;;;;;;;;;;;32.81;32.75;99729.50;5028627;28;20035;-47
2022/06/02 05:57:07;;;;;;;;;;;;;;;32.30;33.50;99735.56;5029109;28;19936;-53
2022/06/02 05:59:44;;;;;;;;;;;;;;;32.83;32.48;99731.91;5030062;28;19916;-49
2022/06/02 06:02:12;;;;;;;;;;;;;;;32.85;32.80;99733.16;5030267;28;19936;-48
2022/06/02 06:04:52;;;;;;;;;;;;;;;33.73;31.67;99734.13;5030084;28;19909;-48
2022/06/02 06:07:36;;;;;;;;;;;;;;;33.29;32.29;99733.09;5030203;28;19916;-47
2022/06/02 06:10:07;;;;;;;;;;;;;;;33.20;32.72;99738.00;5030246;28;19968;-47
2022/06/02 06:12:47;;;;;;;;;;;;;;;33.18;33.09;99729.28;5030276;28;19909;-48
2022/06/02 06:15:21;;;;;;;;;;;;;;;33.45;32.29;99738.63;5029804;28;20095;-47
2022/06/02 06:18:09;;;;;;;;;;;;;;;34.47;31.19;99729.38;5029956;28;19920;-48
2022/06/02 06:20:34;;;;;;;;;;;;;;;34.05;31.83;99729.31;5030384;28;19920;-49
2022/06/02 06:23:03;;;;;;;;;;;;;;;33.68;32.67;99733.25;5029838;28;20015;-47
2022/06/02 06:25:32;;;;;;;;;;;;;;;33.70;32.49;99732.91;5030105;28;19920;-48
2022/06/02 06:28:12;;;;;;;;;;;;;;;34.01;31.23;99725.69;5030088;28;19909;-47
2022/06/02 06:30:56;;;;;;;;;;;;;;;35.07;30.17;99721.78;5037066;28;19939;-51
2022/06/02 06:33:41;;;;;;;;;;;;;;;34.88;30.88;99715.19;5053582;28;19908;-48
2022/06/02 06:36:13;;;;;;;;;;;;;;;34.54;31.24;99719.63;5054074;28;19909;-48
2022/06/02 06:38:53;;;;;;;;;;;;;;;34.31;31.91;99714.88;5053590;28;19942;-46
2022/06/02 06:41:46;;;;;;;;;;;;;;;34.54;31.68;99714.09;5053739;28;20319;-47
2022/06/02 06:44:17;;;;;;;;;;;;;;;35.00;30.19;99711.41;5053403;28;20387;-50
2022/06/02 06:46:54;;;;;;;;;;;;;;;35.10;30.04;99718.28;5038469;28;19916;-49
2022/06/02 06:49:21;;;;;;;;;;;;;;;34.61;30.41;99712.28;5033638;28;19909;-50
2022/06/02 06:51:58;;;;;;;;;;;;;;;34.64;30.54;99714.31;5033623;28;19920;-48
2022/06/02 06:54:34;;;;;;;;;;;;;;;34.13;31.81;99714.47;5032834;28;20278;-51
2022/06/02 06:57:10;;;;;;;;;;;;;;;35.11;29.64;99708.81;5033190;28;19917;-48
2022/06/02 06:59:43;;;;;;;;;;;;;;;35.80;28.71;99709.50;5033073;28;19909;-48
2022/06/02 07:02:34;;;;;;;;;;;;;;;35.52;29.49;99709.88;5033036;28;19909;-49
2022/06/02 07:05:01;;;;;;;;;;;;;;;35.29;30.14;99709.94;5023975;28;20373;-47
2022/06/02 07:07:35;;;;;;;;;;;;;;;35.56;29.46;99707.16;5033000;28;19931;-50
2022/06/02 07:10:03;;;;;;;;;;;;;;;35.29;29.85;99715.47;5032932;28;19913;-50
2022/06/02 07:12:53;;;;;;;;;;;;;;;35.53;29.16;99711.47;5032523;28;19919;-48
2022/06/02 07:15:26;;;;;;;;;;;;;;;35.38;28.98;99718.78;5032930;28;20365;-50
2022/06/02 07:18:00;;;;;;;;;;;;;;;35.04;29.20;99717.81;5033571;28;19909;-49
2022/06/02 07:20:30;;;;;;;;;;;;;;;35.60;29.32;99717.13;5032949;28;20395;-49
2022/06/02 07:22:58;;;;;;;;;;;;;;;35.89;28.79;99717.53;5032752;28;19995;-48
2022/06/02 07:25:24;;;;;;;;;;;;;;;36.48;27.96;99719.81;5030661;28;19920;-50
2022/06/02 07:27:53;;;;;;;;;;;;;;;35.83;28.30;99719.03;5030668;28;19909;-50
2022/06/02 07:30:33;;;;;;;;;;;;;;;35.81;28.82;99722.19;5030294;28;20381;-48
2022/06/02 07:33:17;;;;;;;;;;;;;;;35.98;28.68;99729.09;5030283;28;19917;-50
2022/06/02 07:36:04;;;;;;;;;;;;;;;36.20;28.54;99729.41;5030584;28;19966;-49
2022/06/02 07:38:36;;;;;;;;;;;;;;;37.16;27.10;99720.50;5030738;28;20000;-48
2022/06/02 07:41:15;;;;;;;;;;;;;;;36.92;26.94;99728.22;5030433;28;19962;-47
2022/06/02 07:43:41;;;;;;;;;;;;;;;36.47;28.04;99721.81;5031158;28;20404;-50
2022/06/02 07:46:21;;;;;;;;;;;;;;;36.20;28.76;99721.13;5030846;28;19918;-50
2022/06/02 07:48:56;;;;;;;;;;;;;;;36.25;28.38;99720.75;5030845;28;19909;-49
2022/06/02 07:51:27;;;;;;;;;;;;;;;37.02;28.16;99732.25;5031044;28;19916;-47
2022/06/02 07:53:52;;;;;;;;;;;;;;;37.00;27.17;99723.53;5032536;28;19925;-50
2022/06/02 07:56:23;;;;;;;;;;;;;;;36.84;27.32;99729.31;5032390;28;20266;-50
2022/06/02 07:58:58;;;;;;;;;;;;;;;36.65;27.46;99719.22;5031627;28;19913;-51
2022/06/02 08:01:32;;;;;;;;;;;;;;;36.71;27.60;99719.69;5032352;28;20296;-51
2022/06/02 08:04:08;;;;;;;;;;;;;;;36.82;26.97;99723.34;5031955;28;19999;-51
2022/06/02 08:06:41;;;;;;;;;;;;;;;37.91;26.12;99723.78;5032120;28;19920;-52
2022/06/02 08:09:27;;;;;;;;;;;;;;;37.12;27.72;99714.13;5031647;28;20386;-48
2022/06/02 08:12:11;;;;;;;;;;;;;;;36.71;27.79;99714.13;5036612;28;19999;-49
2022/06/02 08:14:45;;;;;;;;;;;;;;;36.92;26.53;99719.13;5051584;28;19913;-49
2022/06/02 08:17:16;;;;;;;;;;;;;;;36.43;27.99;99712.66;5051892;28;20350;-49
2022/06/02 08:19:49;;;;;;;;;;;;;;;36.73;26.50;99715.38;5051182;28;19923;-51
2022/06/02 08:22:23;;;;;;;;;;;;;;;36.84;26.29;99714.66;5051938;28;20349;-49
2022/06/02 08:24:55;;;;;;;;;;;;;;;36.32;27.15;99706.22;5051668;28;19908;-47
2022/06/02 08:27:23;;;;;;;;;;;;;;;36.16;26.56;99706.41;5051665;28;19912;-49
2022/06/02 08:30:04;;;;;;;;;;;;;;;36.27;27.31;99696.28;5051399;28;20288;-50
2022/06/02 08:32:51;;;;;;;;;;;;;;;36.29;26.83;99701.41;5051267;28;20384;-49
2022/06/02 08:35:16;;;;;;;;;;;;;;;36.46;27.33;99700.84;5051479;28;20366;-50
2022/06/02 08:37:47;;;;;;;;;;;;;;;37.50;26.64;99701.72;5051476;28;20010;-50
2022/06/02 08:40:33;;;;;;;;;;;;;;;37.65;26.23;99701.84;5051133;28;20324;-49
2022/06/02 08:42:58;;;;;;;;;;;;;;;37.30;26.62;99698.44;5050904;28;19908;-50
2022/06/02 08:45:24;;;;;;;;;;;;;;;37.10;26.06;99702.63;5051137;28;19936;-52
2022/06/02 08:48:04;;;;;;;;;;;;;;;37.02;25.81;99695.44;5051456;28;19912;-49
2022/06/02 08:50:38;;;;;;;;;;;;;;;36.91;25.70;99695.34;5050915;28;20387;-51
2022/06/02 08:53:16;;;;;;;;;;;;;;;37.21;26.14;99700.75;5050309;28;19985;-50
2022/06/02 08:55:59;;;;;;;;;;;;;;;37.61;24.54;99693.50;5051290;28;19908;-48
2022/06/02 08:58:42;;;;;;;;;;;;;;;37.06;25.11;99688.72;5051058;28;19923;-47
2022/06/02 09:01:07;;;;;;;;;;;;;;;36.75;26.00;99690.84;5050813;28;19991;-47
2022/06/02 09:03:44;;;;;;;;;;;;;;;36.81;26.05;99687.72;5050524;28;20000;-49
2022/06/02 09:06:34;;;;;;;;;;;;;;;36.78;25.96;99694.81;5050504;28;19909;-49
2022/06/02 09:09:20;;;;;;;;;;;;;;;36.23;26.53;99695.41;5051089;28;19913;-47
2022/06/02 09:11:54;;;;;;;;;;;;;;;36.41;26.26;99695.63;5039199;28;19963;-47
2022/06/02 09:14:25;;;;;;;;;;;;;;;35.82;26.96;99687.78;5030606;28;19913;-48
2022/06/02 09:16:58;;;;;;;;;;;;;;;35.90;26.54;99691.44;5030716;28;19924;-47
2022/06/02 09:19:49;;;;;;;;;;;;;;;35.97;27.27;99690.75;5030800;28;19909;-48
2022/06/02 09:22:35;;;;;;;;;;;;;;;36.09;26.91;99684.94;5030675;28;19909;-47
2022/06/02 09:25:14;;;;;;;;;;;;;;;36.48;26.96;99681.03;5019885;28;19909;-49
2022/06/02 09:27:53;;;;;;;;;;;;;;;36.54;26.33;99696.16;5030635;28;19962;-48
2022/06/02 09:30:37;;;;;;;;;;;;;;;35.65;28.43;99693.06;5030287;28;19913;-48
2022/06/02 09:36:14;;;;;;;;;;;;;;;35.46;27.75;99682.94;5030420;28;20006;-49
2022/06/02 09:38:54;;;;;;;;;;;;;;;35.62;27.74;99694.59;5029889;28;20054;-50
2022/06/02 09:41:19;;;;;;;;;;;;;;;35.32;27.50;99695.38;5030513;28;19919;-47
2022/06/02 09:43:56;;;;;;;;;;;;;;;34.27;28.97;99691.91;5030123;28;19909;-49
2022/06/02 09:46:48;;;;;;;;;;;;;;;33.54;29.78;99690.72;5030178;28;20176;-47
2022/06/02 09:49:33;;;;;;;;;;;;;;;33.82;29.12;99694.13;5030201;28;19909;-49
2022/06/02 09:52:02;;;;;;;;;;;;;;;34.42;28.81;99684.69;5030250;28;19924;-48
2022/06/02 09:54:41;;;;;;;;;;;;;;;34.41;29.49;99692.19;5029721;28;19913;-48
2022/06/02 10:00:40;;;;;;;;;;;;;;;35.17;26.91;99676.94;5013409;28;20431;-51
2022/06/02 10:03:15;;;;;;;;;;;;;;;35.73;25.89;99680.94;5025741;28;19908;-50
2022/06/02 10:05:46;;;;;;;;;;;;;;;35.40;26.64;99676.91;5030020;28;19909;-48
2022/06/02 10:08:20;;;;;;;;;;;;;;;35.41;26.80;99681.25;5029865;28;19909;-51
2022/06/02 10:11:04;;;;;;;;;;;;;;;34.76;27.21;99679.41;5030356;28;19908;-48
2022/06/02 10:13:32;;;;;;;;;;;;;;;34.85;26.80;99674.44;5048124;28;19990;-50
2022/06/02 10:16:07;;;;;;;;;;;;;;;35.13;25.44;99670.53;5049395;28;19916;-48
2022/06/02 10:18:35;;;;;;;;;;;;;;;35.49;25.41;99671.91;5049459;28;19909;-48
2022/06/02 10:21:11;;;;;;;;;;;;;;;35.41;25.12;99667.44;5049687;28;20352;-50
2022/06/02 10:23:40;;;;;;;;;;;;;;;35.01;26.71;99666.81;5050003;28;20007;-51
2022/06/02 10:26:23;;;;;;;;;;;;;;;34.76;25.18;99660.88;5049311;28;19909;-52
2022/06/02 10:28:55;;;;;;;;;;;;;;;35.15;25.29;99657.94;5048602;28;20109;-51
2022/06/02 10:31:33;;;;;;;;;;;;;;;35.53;24.70;99658.09;5049273;28;19986;-48
2022/06/02 10:33:58;;;;;;;;;;;;;;;36.10;23.97;99649.75;5049132;28;20365;-49
2022/06/02 10:36:43;;;;;;;;;;;;;;;36.53;23.11;99653.78;5049740;28;19917;-49
2022/06/02 10:39:27;;;;;;;;;;;;;;;36.09;22.44;99645.41;5044941;28;19908;-50
2022/06/02 10:41:58;;;;;;;;;;;;;;;35.38;23.83;99644.09;5049447;28;20307;-48
2022/06/02 10:44:27;;;;;;;;;;;;;;;35.56;22.41;99640.75;5049410;28;19909;-51
2022/06/02 10:46:55;;;;;;;;;;;;;;;35.77;22.12;99630.00;5049565;28;20003;-47
2022/06/02 10:49:30;;;;;;;;;;;;;;;35.67;22.48;99625.09;5049656;28;20003;-50
2022/06/02 10:52:14;;;;;;;;;;;;;;;36.63;22.29;99621.00;5050117;28;19913;-48
2022/06/02 10:54:58;;;;;;;;;;;;;;;36.10;22.28;99625.63;5049466;28;19916;-52
2022/06/02 10:57:44;;;;;;;;;;;;;;;35.36;23.96;99621.53;5049821;28;20306;-48
2022/06/02 11:00:29;;;;;;;;;;;;;;;35.09;23.80;99620.75;5049100;28;19917;-49
2022/06/02 11:03:07;;;;;;;;;;;;;;;35.13;23.67;99613.28;5049211;28;19915;-48
2022/06/02 11:05:41;;;;;;;;;;;;;;;35.28;23.11;99611.56;5049699;28;20004;-50
2022/06/02 11:08:13;;;;;;;;;;;;;;;35.89;23.71;99615.13;5049269;28;19991;-51
2022/06/02 11:10:47;;;;;;;;;;;;;;;35.30;24.04;99613.94;5048993;28;20456;-49
2022/06/02 11:13:31;;;;;;;;;;;;;;;35.44;24.59;99609.41;5033136;28;20296;-50
2022/06/02 11:16:15;;;;;;;;;;;;;;;35.02;24.12;99607.59;5030864;28;20310;-48
2022/06/02 11:18:49;;;;;;;;;;;;;;;35.07;24.11;99619.50;5033257;28;19909;-48
2022/06/02 11:21:20;;;;;;;;;;;;;;;35.09;24.12;99606.09;5032919;28;20004;-52
2022/06/02 11:24:03;;;;;;;;;;;;;;;35.39;23.77;99603.41;5032848;28;20389;-48
2022/06/02 11:26:47;;;;;;;;;;;;;;;35.32;23.38;99601.34;5032798;28;20338;-48
2022/06/02 11:29:27;;;;;;;;;;;;;;;34.46;25.53;99599.94;5032874;28;19913;-48
2022/06/02 11:31:52;;;;;;;;;;;;;;;34.16;25.85;99592.34;5032173;28;20369;-49
2022/06/02 11:34:27;;;;;;;;;;;;;;;34.80;25.30;99600.13;5030907;28;19909;-50
2022/06/02 11:37:07;;;;;;;;;;;;;;;35.28;25.06;99597.75;5032577;28;19909;-51
2022/06/02 11:39:35;;;;;;;;;;;;;;;35.73;23.62;99587.66;5032513;28;19915;-49
2022/06/02 11:42:01;;;;;;;;;;;;;;;36.24;23.91;99588.22;5032267;28;19909;-51
2022/06/02 11:44:35;;;;;;;;;;;;;;;35.35;24.32;99591.50;5032686;28;19920;-51
2022/06/02 11:47:15;;;;;;;;;;;;;;;35.39;24.05;99586.78;5032697;28;20275;-48
2022/06/02 11:49:46;;;;;;;;;;;;;;;35.61;24.14;99583.13;5032866;28;19913;-49
2022/06/02 11:52:30;;;;;;;;;;;;;;;35.57;23.68;99576.75;5032128;28;20047;-47
2022/06/02 11:55:01;;;;;;;;;;;;;;;36.08;23.96;99580.09;5048469;28;20003;-49
2022/06/02 11:57:35;;;;;;;;;;;;;;;36.10;23.86;99566.69;5052132;28;19909;-48
2022/06/02 12:00:13;;;;;;;;;;;;;;;37.11;22.91;99571.06;5052365;28;19948;-49
2022/06/02 12:02:39;;;;;;;;;;;;;;;37.05;23.58;99564.31;5052011;28;19995;-47
2022/06/02 12:05:04;;;;;;;;;;;;;;;36.64;24.18;99564.44;5052532;28;19958;-50
2022/06/02 12:07:29;;;;;;;;;;;;;;;36.77;22.81;99562.97;5052109;28;19932;-51
2022/06/02 12:09:57;;;;;;;;;;;;;;;36.87;22.88;99559.47;5052340;28;19916;-47
2022/06/02 12:12:23;;;;;;;;;;;;;;;36.74;23.67;99560.94;5042554;28;20008;-50
2022/06/02 12:15:21;;;;;;;;;;;;;;;37.11;23.08;99557.22;5031738;28;20016;-48
2022/06/02 12:18:03;;;;;;;;;;;;;;;37.04;23.09;99552.44;5019790;28;19920;-49
2022/06/02 12:20:36;;;;;;;;;;;;;;;36.71;23.39;99553.41;5032723;28;19944;-49
2022/06/02 12:23:10;;;;;;;;;;;;;;;36.27;23.39;99543.13;5031702;28;19963;-47
2022/06/02 12:25:54;;;;;;;;;;;;;;;36.44;24.06;99542.47;5031853;28;19915;-49
2022/06/02 12:28:25;;;;;;;;;;;;;;;36.56;22.93;99542.19;5050411;28;20033;-50
2022/06/02 12:31:09;;;;;;;;;;;;;;;36.71;23.46;99539.53;5051760;28;20008;-48
2022/06/02 12:33:40;;;;;;;;;;;;;;;37.40;23.36;99549.09;5050653;28;19988;-49
2022/06/02 12:36:26;;;;;;;;;;;;;;;37.10;23.23;99533.47;5031679;28;19956;-49
2022/06/02 12:38:51;;;;;;;;;;;;;;;36.54;23.12;99535.47;5031660;28;20428;-49
2022/06/02 12:41:19;;;;;;;;;;;;;;;36.18;23.29;99541.47;5032147;28;19998;-52
2022/06/02 12:44:04;;;;;;;;;;;;;;;36.48;23.08;99525.88;5031796;28;19913;-48
2022/06/02 12:46:47;;;;;;;;;;;;;;;36.50;22.94;99526.31;5031053;28;20393;-50
2022/06/02 12:49:31;;;;;;;;;;;;;;;37.36;22.77;99516.56;5031548;28;19916;-48
2022/06/02 12:51:56;;;;;;;;;;;;;;;37.56;22.07;99524.56;5031766;28;19975;-50
2022/06/02 12:54:40;;;;;;;;;;;;;;;37.78;21.68;99522.66;5031459;28;19956;-51
2022/06/02 12:57:19;;;;;;;;;;;;;;;37.27;22.20;99518.13;5031229;28;19986;-48
2022/06/02 12:59:45;;;;;;;;;;;;;;;37.34;22.84;99513.38;5030971;28;19974;-50
2022/06/02 13:02:10;;;;;;;;;;;;;;;37.20;23.36;99518.88;5031396;28;19909;-49
2022/06/02 13:04:54;;;;;;;;;;;;;;;37.06;23.72;99511.25;5031841;28;19928;-50
2022/06/02 13:07:22;;;;;;;;;;;;;;;37.53;22.62;99512.25;5031095;28;19909;-50
2022/06/02 13:10:06;;;;;;;;;;;;;;;37.64;21.99;99511.50;5031200;28;20003;-51
2022/06/02 13:12:34;;;;;;;;;;;;;;;37.42;23.33;99505.09;5030680;28;19966;-51
2022/06/02 13:14:59;;;;;;;;;;;;;;;37.32;22.49;99503.88;5030960;28;19909;-49
2022/06/02 13:17:33;;;;;;;;;;;;;;;37.46;22.59;99500.34;5030585;28;19920;-48
2022/06/02 13:19:58;;;;;;;;;;;;;;;37.70;22.15;99502.44;5030919;28;19944;-50
2022/06/02 13:22:31;;;;;;;;;;;;;;;37.79;22.72;99504.81;5030960;28;19960;-52
2022/06/02 13:25:23;;;;;;;;;;;;;;;38.32;22.73;99500.50;5030992;28;19909;-50
2022/06/02 13:28:03;;;;;;;;;;;;;;;38.51;22.02;99500.09;5030150;28;19909;-50
2022/06/02 13:30:54;;;;;;;;;;;;;;;37.62;22.24;99506.34;5030672;28;19944;-50
2022/06/02 13:33:19;;;;;;;;;;;;;;;36.70;22.76;99499.97;5030625;28;19908;-49
2022/06/02 13:35:47;;;;;;;;;;;;;;;36.68;23.46;99498.75;5030175;28;20300;-49
2022/06/02 13:38:18;;;;;;;;;;;;;;;36.33;23.49;99494.53;5030152;28;19940;-48
2022/06/02 13:40:55;;;;;;;;;;;;;;;36.60;22.85;99503.44;5030351;28;19913;-48
2022/06/02 13:43:39;;;;;;;;;;;;;;;37.56;22.54;99497.59;5030591;28;20051;-49